sensor_id;sensor_type;location;lat;lon;timestamp;P1;durP1;ratioP1;P2;durP2;ratioP2
25952;SDS011;13750;50.804;8.764;2022-08-19T00:02:33;7.57;;;6.28;;
25952;SDS011;13750;50.804;8.764;2022-08-19T00:04:59;7.88;;;7.07;;
25952;SDS011;13750;50.804;8.764;2022-08-19T00:07:24;7.60;;;6.87;;
25952;SDS011;13750;50.804;8.764;2022-08-19T00:09:50;6.90;;;6.30;;
25952;SDS011;13750;50.804;8.764;2022-08-19T00:12:16;7.13;;;6.43;;
25952;SDS011;13750;50.804;8.764;2022-08-19T00:14:41;6.57;;;5.97;;
25952;SDS011;13750;50.804;8.764;2022-08-19T00:17:08;6.40;;;5.80;;
25952;SDS011;13750;50.804;8.764;2022-08-19T00:19:35;6.30;;;5.70;;
25952;SDS011;13750;50.804;8.764;2022-08-19T00:22:01;6.57;;;5.97;;
25952;SDS011;13750;50.804;8.764;2022-08-19T00:24:27;7.10;;;6.50;;
25952;SDS011;13750;50.804;8.764;2022-08-19T00:26:53;6.57;;;5.97;;
25952;SDS011;13750;50.804;8.764;2022-08-19T00:29:21;7.68;;;6.75;;
25952;SDS011;13750;50.804;8.764;2022-08-19T00:31:51;8.18;;;7.38;;
25952;SDS011;13750;50.804;8.764;2022-08-19T00:34:24;8.75;;;7.95;;
25952;SDS011;13750;50.804;8.764;2022-08-19T00:36:53;8.75;;;7.95;;
25952;SDS011;13750;50.804;8.764;2022-08-19T00:39:18;6.93;;;6.32;;
25952;SDS011;13750;50.804;8.764;2022-08-19T00:41:44;7.17;;;6.53;;
25952;SDS011;13750;50.804;8.764;2022-08-19T00:44:18;7.00;;;6.40;;
25952;SDS011;13750;50.804;8.764;2022-08-19T00:46:47;10.15;;;9.15;;
25952;SDS011;13750;50.804;8.764;2022-08-19T00:49:15;9.68;;;8.77;;
25952;SDS011;13750;50.804;8.764;2022-08-19T00:54:20;8.35;;;7.63;;
25952;SDS011;13750;50.804;8.764;2022-08-19T00:56:46;7.22;;;6.60;;
25952;SDS011;13750;50.804;8.764;2022-08-19T01:01:39;8.50;;;7.75;;
25952;SDS011;13750;50.804;8.764;2022-08-19T01:04:07;8.43;;;7.68;;
25952;SDS011;13750;50.804;8.764;2022-08-19T01:06:33;7.67;;;6.97;;
25952;SDS011;13750;50.804;8.764;2022-08-19T01:09:00;6.68;;;6.07;;
25952;SDS011;13750;50.804;8.764;2022-08-19T01:11:37;5.85;;;5.35;;
25952;SDS011;13750;50.804;8.764;2022-08-19T01:14:05;5.68;;;5.18;;
25952;SDS011;13750;50.804;8.764;2022-08-19T01:16:32;5.93;;;5.32;;
25952;SDS011;13750;50.804;8.764;2022-08-19T01:18:59;5.78;;;5.28;;
25952;SDS011;13750;50.804;8.764;2022-08-19T01:24:10;5.80;;;5.30;;
25952;SDS011;13750;50.804;8.764;2022-08-19T01:26:42;5.60;;;5.05;;
25952;SDS011;13750;50.804;8.764;2022-08-19T01:29:09;5.25;;;4.80;;
25952;SDS011;13750;50.804;8.764;2022-08-19T01:31:35;4.78;;;4.38;;
25952;SDS011;13750;50.804;8.764;2022-08-19T01:34:04;5.55;;;5.05;;
25952;SDS011;13750;50.804;8.764;2022-08-19T01:36:31;5.00;;;4.60;;
25952;SDS011;13750;50.804;8.764;2022-08-19T01:39:01;4.20;;;3.80;;
25952;SDS011;13750;50.804;8.764;2022-08-19T01:41:30;4.32;;;4.03;;
25952;SDS011;13750;50.804;8.764;2022-08-19T01:43:55;5.43;;;5.00;;
25952;SDS011;13750;50.804;8.764;2022-08-19T01:46:21;5.93;;;5.23;;
25952;SDS011;13750;50.804;8.764;2022-08-19T01:48:47;5.18;;;4.68;;
25952;SDS011;13750;50.804;8.764;2022-08-19T01:51:13;4.68;;;4.28;;
25952;SDS011;13750;50.804;8.764;2022-08-19T01:53:39;4.32;;;3.95;;
25952;SDS011;13750;50.804;8.764;2022-08-19T01:56:05;4.97;;;4.57;;
25952;SDS011;13750;50.804;8.764;2022-08-19T01:58:35;8.82;;;8.02;;
25952;SDS011;13750;50.804;8.764;2022-08-19T02:01:05;9.02;;;7.22;;
25952;SDS011;13750;50.804;8.764;2022-08-19T02:03:31;7.97;;;7.22;;
25952;SDS011;13750;50.804;8.764;2022-08-19T02:05:59;7.50;;;6.80;;
25952;SDS011;13750;50.804;8.764;2022-08-19T02:08:29;8.90;;;8.10;;
25952;SDS011;13750;50.804;8.764;2022-08-19T02:10:55;8.38;;;7.53;;
25952;SDS011;13750;50.804;8.764;2022-08-19T02:13:21;7.22;;;6.55;;
25952;SDS011;13750;50.804;8.764;2022-08-19T02:15:51;6.07;;;5.57;;
25952;SDS011;13750;50.804;8.764;2022-08-19T02:18:17;6.63;;;5.43;;
25952;SDS011;13750;50.804;8.764;2022-08-19T02:20:43;8.30;;;7.47;;
25952;SDS011;13750;50.804;8.764;2022-08-19T02:23:10;6.82;;;6.30;;
25952;SDS011;13750;50.804;8.764;2022-08-19T02:25:36;7.50;;;6.80;;
25952;SDS011;13750;50.804;8.764;2022-08-19T02:28:03;7.55;;;6.47;;
25952;SDS011;13750;50.804;8.764;2022-08-19T02:30:29;6.28;;;5.78;;
25952;SDS011;13750;50.804;8.764;2022-08-19T02:32:57;6.10;;;5.50;;
25952;SDS011;13750;50.804;8.764;2022-08-19T02:35:23;5.17;;;4.77;;
25952;SDS011;13750;50.804;8.764;2022-08-19T02:37:49;6.15;;;5.57;;
25952;SDS011;13750;50.804;8.764;2022-08-19T02:40:34;5.18;;;4.75;;
25952;SDS011;13750;50.804;8.764;2022-08-19T02:43:09;4.80;;;4.40;;
25952;SDS011;13750;50.804;8.764;2022-08-19T02:45:41;7.30;;;6.70;;
25952;SDS011;13750;50.804;8.764;2022-08-19T02:48:18;7.55;;;6.85;;
25952;SDS011;13750;50.804;8.764;2022-08-19T02:50:51;7.95;;;7.15;;
25952;SDS011;13750;50.804;8.764;2022-08-19T02:53:23;7.03;;;6.25;;
25952;SDS011;13750;50.804;8.764;2022-08-19T02:55:50;6.20;;;5.70;;
25952;SDS011;13750;50.804;8.764;2022-08-19T02:58:17;5.15;;;4.75;;
25952;SDS011;13750;50.804;8.764;2022-08-19T03:00:45;5.60;;;5.10;;
25952;SDS011;13750;50.804;8.764;2022-08-19T03:03:13;4.68;;;4.28;;
25952;SDS011;13750;50.804;8.764;2022-08-19T03:05:40;4.72;;;4.32;;
25952;SDS011;13750;50.804;8.764;2022-08-19T03:10:39;4.65;;;4.25;;
25952;SDS011;13750;50.804;8.764;2022-08-19T03:13:10;5.35;;;4.78;;
25952;SDS011;13750;50.804;8.764;2022-08-19T03:15:41;5.93;;;5.35;;
25952;SDS011;13750;50.804;8.764;2022-08-19T03:18:08;6.13;;;5.53;;
25952;SDS011;13750;50.804;8.764;2022-08-19T03:20:39;5.38;;;4.95;;
25952;SDS011;13750;50.804;8.764;2022-08-19T03:23:09;5.75;;;5.25;;
25952;SDS011;13750;50.804;8.764;2022-08-19T03:25:38;5.38;;;4.88;;
25952;SDS011;13750;50.804;8.764;2022-08-19T03:28:06;5.72;;;5.22;;
25952;SDS011;13750;50.804;8.764;2022-08-19T03:30:32;6.03;;;5.53;;
25952;SDS011;13750;50.804;8.764;2022-08-19T03:32:58;5.88;;;5.28;;
25952;SDS011;13750;50.804;8.764;2022-08-19T03:35:24;5.43;;;5.03;;
25952;SDS011;13750;50.804;8.764;2022-08-19T03:37:49;5.43;;;4.93;;
25952;SDS011;13750;50.804;8.764;2022-08-19T03:40:15;5.50;;;5.10;;
25952;SDS011;13750;50.804;8.764;2022-08-19T03:42:41;5.43;;;4.93;;
25952;SDS011;13750;50.804;8.764;2022-08-19T03:45:07;5.90;;;5.40;;
25952;SDS011;13750;50.804;8.764;2022-08-19T03:47:35;5.97;;;5.47;;
25952;SDS011;13750;50.804;8.764;2022-08-19T03:50:02;5.80;;;5.20;;
25952;SDS011;13750;50.804;8.764;2022-08-19T03:52:29;5.90;;;5.30;;
25952;SDS011;13750;50.804;8.764;2022-08-19T03:54:54;5.97;;;5.37;;
25952;SDS011;13750;50.804;8.764;2022-08-19T03:57:20;6.17;;;5.57;;
25952;SDS011;13750;50.804;8.764;2022-08-19T03:59:45;5.90;;;5.30;;
25952;SDS011;13750;50.804;8.764;2022-08-19T04:02:11;5.77;;;5.27;;
25952;SDS011;13750;50.804;8.764;2022-08-19T04:07:04;5.95;;;5.45;;
25952;SDS011;13750;50.804;8.764;2022-08-19T04:09:30;6.20;;;5.60;;
25952;SDS011;13750;50.804;8.764;2022-08-19T04:11:58;8.05;;;7.35;;
25952;SDS011;13750;50.804;8.764;2022-08-19T04:14:25;7.90;;;7.20;;
25952;SDS011;13750;50.804;8.764;2022-08-19T04:16:55;7.22;;;6.63;;
25952;SDS011;13750;50.804;8.764;2022-08-19T04:19:21;6.85;;;6.22;;
25952;SDS011;13750;50.804;8.764;2022-08-19T04:21:49;6.20;;;5.70;;
25952;SDS011;13750;50.804;8.764;2022-08-19T04:24:16;6.03;;;5.50;;
25952;SDS011;13750;50.804;8.764;2022-08-19T04:26:42;5.40;;;4.97;;
25952;SDS011;13750;50.804;8.764;2022-08-19T04:29:09;7.23;;;6.53;;
25952;SDS011;13750;50.804;8.764;2022-08-19T04:31:37;6.63;;;6.03;;
25952;SDS011;13750;50.804;8.764;2022-08-19T04:34:05;7.40;;;6.78;;
25952;SDS011;13750;50.804;8.764;2022-08-19T04:36:33;6.47;;;5.88;;
25952;SDS011;13750;50.804;8.764;2022-08-19T04:39:05;7.25;;;6.60;;
25952;SDS011;13750;50.804;8.764;2022-08-19T04:41:35;6.53;;;6.03;;
25952;SDS011;13750;50.804;8.764;2022-08-19T04:44:20;5.95;;;5.35;;
25952;SDS011;13750;50.804;8.764;2022-08-19T04:46:46;5.70;;;5.20;;
25952;SDS011;13750;50.804;8.764;2022-08-19T04:49:13;10.00;;;9.00;;
25952;SDS011;13750;50.804;8.764;2022-08-19T04:51:44;9.95;;;9.05;;
25952;SDS011;13750;50.804;8.764;2022-08-19T04:54:12;8.35;;;7.60;;
25952;SDS011;13750;50.804;8.764;2022-08-19T04:56:39;7.72;;;7.00;;
25952;SDS011;13750;50.804;8.764;2022-08-19T04:59:05;6.80;;;6.20;;
25952;SDS011;13750;50.804;8.764;2022-08-19T05:01:32;6.40;;;5.80;;
25952;SDS011;13750;50.804;8.764;2022-08-19T05:04:02;7.10;;;6.32;;
25952;SDS011;13750;50.804;8.764;2022-08-19T05:06:30;5.82;;;5.32;;
25952;SDS011;13750;50.804;8.764;2022-08-19T05:08:58;6.00;;;5.50;;
25952;SDS011;13750;50.804;8.764;2022-08-19T05:11:26;5.68;;;5.00;;
25952;SDS011;13750;50.804;8.764;2022-08-19T05:13:54;5.00;;;4.60;;
25952;SDS011;13750;50.804;8.764;2022-08-19T05:16:21;4.88;;;4.45;;
25952;SDS011;13750;50.804;8.764;2022-08-19T05:18:48;5.20;;;4.70;;
25952;SDS011;13750;50.804;8.764;2022-08-19T05:21:32;5.32;;;4.82;;
25952;SDS011;13750;50.804;8.764;2022-08-19T05:24:18;5.20;;;4.80;;
25952;SDS011;13750;50.804;8.764;2022-08-19T05:26:46;5.60;;;5.10;;
25952;SDS011;13750;50.804;8.764;2022-08-19T05:29:18;4.93;;;4.43;;
25952;SDS011;13750;50.804;8.764;2022-08-19T05:31:45;5.57;;;5.07;;
25952;SDS011;13750;50.804;8.764;2022-08-19T05:34:12;4.70;;;4.20;;
25952;SDS011;13750;50.804;8.764;2022-08-19T05:36:40;4.80;;;4.40;;
25952;SDS011;13750;50.804;8.764;2022-08-19T05:39:10;4.97;;;4.47;;
25952;SDS011;13750;50.804;8.764;2022-08-19T05:41:44;5.03;;;4.63;;
25952;SDS011;13750;50.804;8.764;2022-08-19T05:44:13;4.90;;;4.50;;
25952;SDS011;13750;50.804;8.764;2022-08-19T05:46:39;4.95;;;4.55;;
25952;SDS011;13750;50.804;8.764;2022-08-19T05:49:07;4.82;;;4.43;;
25952;SDS011;13750;50.804;8.764;2022-08-19T05:51:34;5.70;;;5.20;;
25952;SDS011;13750;50.804;8.764;2022-08-19T05:54:02;5.22;;;4.82;;
25952;SDS011;13750;50.804;8.764;2022-08-19T05:56:29;5.75;;;5.15;;
25952;SDS011;13750;50.804;8.764;2022-08-19T05:58:55;6.07;;;5.47;;
25952;SDS011;13750;50.804;8.764;2022-08-19T06:01:23;5.75;;;5.20;;
25952;SDS011;13750;50.804;8.764;2022-08-19T06:03:50;4.93;;;4.53;;
25952;SDS011;13750;50.804;8.764;2022-08-19T06:06:16;5.07;;;4.67;;
25952;SDS011;13750;50.804;8.764;2022-08-19T06:08:43;5.18;;;4.68;;
25952;SDS011;13750;50.804;8.764;2022-08-19T06:11:25;5.70;;;5.20;;
25952;SDS011;13750;50.804;8.764;2022-08-19T06:14:05;5.20;;;4.80;;
25952;SDS011;13750;50.804;8.764;2022-08-19T06:16:34;6.68;;;6.03;;
25952;SDS011;13750;50.804;8.764;2022-08-19T06:19:04;6.88;;;6.15;;
25952;SDS011;13750;50.804;8.764;2022-08-19T06:21:32;5.93;;;5.43;;
25952;SDS011;13750;50.804;8.764;2022-08-19T06:23:58;5.93;;;5.43;;
25952;SDS011;13750;50.804;8.764;2022-08-19T06:26:24;4.97;;;4.57;;
25952;SDS011;13750;50.804;8.764;2022-08-19T06:31:17;4.45;;;3.92;;
25952;SDS011;13750;50.804;8.764;2022-08-19T06:33:48;5.45;;;4.95;;
25952;SDS011;13750;50.804;8.764;2022-08-19T06:36:24;4.00;;;3.65;;
25952;SDS011;13750;50.804;8.764;2022-08-19T06:38:52;3.78;;;3.47;;
25952;SDS011;13750;50.804;8.764;2022-08-19T06:41:18;4.15;;;3.80;;
25952;SDS011;13750;50.804;8.764;2022-08-19T06:43:44;4.27;;;3.97;;
25952;SDS011;13750;50.804;8.764;2022-08-19T06:46:13;3.27;;;2.97;;
25952;SDS011;13750;50.804;8.764;2022-08-19T06:48:41;3.35;;;3.08;;
25952;SDS011;13750;50.804;8.764;2022-08-19T06:51:06;4.68;;;4.28;;
25952;SDS011;13750;50.804;8.764;2022-08-19T06:53:32;4.63;;;4.23;;
25952;SDS011;13750;50.804;8.764;2022-08-19T06:55:59;4.45;;;4.05;;
25952;SDS011;13750;50.804;8.764;2022-08-19T06:58:30;4.13;;;3.75;;
25952;SDS011;13750;50.804;8.764;2022-08-19T07:00:59;4.13;;;3.78;;
25952;SDS011;13750;50.804;8.764;2022-08-19T07:03:29;5.90;;;5.40;;
25952;SDS011;13750;50.804;8.764;2022-08-19T07:05:56;5.78;;;5.15;;
25952;SDS011;13750;50.804;8.764;2022-08-19T07:08:22;5.22;;;4.82;;
25952;SDS011;13750;50.804;8.764;2022-08-19T07:10:49;6.35;;;5.80;;
25952;SDS011;13750;50.804;8.764;2022-08-19T07:13:14;5.87;;;5.27;;
25952;SDS011;13750;50.804;8.764;2022-08-19T07:15:40;4.73;;;4.33;;
25952;SDS011;13750;50.804;8.764;2022-08-19T07:18:05;4.43;;;4.07;;
25952;SDS011;13750;50.804;8.764;2022-08-19T07:20:31;3.50;;;3.20;;
25952;SDS011;13750;50.804;8.764;2022-08-19T07:22:57;6.45;;;5.25;;
25952;SDS011;13750;50.804;8.764;2022-08-19T07:25:23;5.30;;;4.80;;
25952;SDS011;13750;50.804;8.764;2022-08-19T07:27:49;4.27;;;3.97;;
25952;SDS011;13750;50.804;8.764;2022-08-19T07:30:16;3.80;;;3.50;;
25952;SDS011;13750;50.804;8.764;2022-08-19T07:32:42;3.67;;;3.38;;
25952;SDS011;13750;50.804;8.764;2022-08-19T07:35:07;3.42;;;3.13;;
25952;SDS011;13750;50.804;8.764;2022-08-19T07:40:02;4.90;;;4.03;;
25952;SDS011;13750;50.804;8.764;2022-08-19T07:42:36;4.80;;;3.85;;
25952;SDS011;13750;50.804;8.764;2022-08-19T07:45:02;3.35;;;3.05;;
25952;SDS011;13750;50.804;8.764;2022-08-19T07:47:31;5.43;;;3.60;;
25952;SDS011;13750;50.804;8.764;2022-08-19T07:49:59;3.20;;;2.90;;
25952;SDS011;13750;50.804;8.764;2022-08-19T07:52:25;3.23;;;2.93;;
25952;SDS011;13750;50.804;8.764;2022-08-19T07:54:59;4.63;;;3.70;;
25952;SDS011;13750;50.804;8.764;2022-08-19T07:57:28;4.28;;;3.53;;
25952;SDS011;13750;50.804;8.764;2022-08-19T07:59:54;4.23;;;3.40;;
25952;SDS011;13750;50.804;8.764;2022-08-19T08:02:19;4.27;;;3.63;;
25952;SDS011;13750;50.804;8.764;2022-08-19T08:04:45;5.10;;;3.20;;
25952;SDS011;13750;50.804;8.764;2022-08-19T08:07:29;6.78;;;3.10;;
25952;SDS011;13750;50.804;8.764;2022-08-19T08:10:13;3.80;;;3.15;;
25952;SDS011;13750;50.804;8.764;2022-08-19T08:12:39;4.13;;;3.57;;
25952;SDS011;13750;50.804;8.764;2022-08-19T08:15:07;3.35;;;2.50;;
25952;SDS011;13750;50.804;8.764;2022-08-19T08:17:36;3.22;;;2.45;;
25952;SDS011;13750;50.804;8.764;2022-08-19T08:20:03;3.72;;;2.63;;
25952;SDS011;13750;50.804;8.764;2022-08-19T08:22:31;4.75;;;3.42;;
25952;SDS011;13750;50.804;8.764;2022-08-19T08:25:17;4.15;;;3.80;;
25952;SDS011;13750;50.804;8.764;2022-08-19T08:27:45;3.25;;;2.95;;
25952;SDS011;13750;50.804;8.764;2022-08-19T08:30:13;3.33;;;2.70;;
25952;SDS011;13750;50.804;8.764;2022-08-19T08:32:40;3.28;;;2.40;;
25952;SDS011;13750;50.804;8.764;2022-08-19T08:35:07;2.20;;;2.05;;
25952;SDS011;13750;50.804;8.764;2022-08-19T08:37:34;2.85;;;2.65;;
25952;SDS011;13750;50.804;8.764;2022-08-19T08:40:09;3.28;;;2.65;;
25952;SDS011;13750;50.804;8.764;2022-08-19T08:42:37;3.45;;;2.85;;
25952;SDS011;13750;50.804;8.764;2022-08-19T08:45:11;2.28;;;2.08;;
25952;SDS011;13750;50.804;8.764;2022-08-19T08:47:43;3.78;;;3.33;;
25952;SDS011;13750;50.804;8.764;2022-08-19T08:50:24;3.08;;;2.80;;
25952;SDS011;13750;50.804;8.764;2022-08-19T08:52:57;3.45;;;3.00;;
25952;SDS011;13750;50.804;8.764;2022-08-19T08:55:27;3.05;;;2.75;;
25952;SDS011;13750;50.804;8.764;2022-08-19T09:00:37;2.92;;;2.45;;
25952;SDS011;13750;50.804;8.764;2022-08-19T09:03:17;2.63;;;2.42;;
25952;SDS011;13750;50.804;8.764;2022-08-19T09:06:03;3.45;;;3.05;;
25952;SDS011;13750;50.804;8.764;2022-08-19T09:08:47;2.72;;;2.53;;
25952;SDS011;13750;50.804;8.764;2022-08-19T09:11:44;4.28;;;2.45;;
25952;SDS011;13750;50.804;8.764;2022-08-19T09:14:17;2.90;;;2.42;;
25952;SDS011;13750;50.804;8.764;2022-08-19T09:16:48;3.55;;;2.88;;
25952;SDS011;13750;50.804;8.764;2022-08-19T09:19:14;2.60;;;2.40;;
25952;SDS011;13750;50.804;8.764;2022-08-19T09:21:42;2.40;;;2.20;;
25952;SDS011;13750;50.804;8.764;2022-08-19T09:24:08;2.50;;;2.30;;
25952;SDS011;13750;50.804;8.764;2022-08-19T09:26:34;2.53;;;2.05;;
25952;SDS011;13750;50.804;8.764;2022-08-19T09:29:00;2.40;;;2.20;;
25952;SDS011;13750;50.804;8.764;2022-08-19T09:31:27;2.78;;;2.20;;
25952;SDS011;13750;50.804;8.764;2022-08-19T09:33:54;3.55;;;2.60;;
25952;SDS011;13750;50.804;8.764;2022-08-19T09:36:24;3.97;;;2.67;;
25952;SDS011;13750;50.804;8.764;2022-08-19T09:38:52;2.28;;;2.08;;
25952;SDS011;13750;50.804;8.764;2022-08-19T09:46:12;2.58;;;2.38;;
25952;SDS011;13750;50.804;8.764;2022-08-19T09:48:39;2.00;;;1.85;;
25952;SDS011;13750;50.804;8.764;2022-08-19T09:51:06;1.95;;;1.77;;
25952;SDS011;13750;50.804;8.764;2022-08-19T09:53:39;2.03;;;1.83;;
25952;SDS011;13750;50.804;8.764;2022-08-19T09:56:06;2.20;;;1.80;;
25952;SDS011;13750;50.804;8.764;2022-08-19T09:58:32;2.20;;;2.00;;
25952;SDS011;13750;50.804;8.764;2022-08-19T10:01:00;2.10;;;1.75;;
25952;SDS011;13750;50.804;8.764;2022-08-19T10:03:27;1.88;;;1.77;;
25952;SDS011;13750;50.804;8.764;2022-08-19T10:05:54;2.53;;;1.90;;
25952;SDS011;13750;50.804;8.764;2022-08-19T10:08:22;2.33;;;2.13;;
25952;SDS011;13750;50.804;8.764;2022-08-19T10:10:50;2.35;;;2.13;;
25952;SDS011;13750;50.804;8.764;2022-08-19T10:13:18;2.58;;;2.35;;
25952;SDS011;13750;50.804;8.764;2022-08-19T10:15:48;2.83;;;2.47;;
25952;SDS011;13750;50.804;8.764;2022-08-19T10:18:17;2.90;;;2.38;;
25952;SDS011;13750;50.804;8.764;2022-08-19T10:20:44;2.95;;;2.15;;
25952;SDS011;13750;50.804;8.764;2022-08-19T10:23:11;2.47;;;2.28;;
25952;SDS011;13750;50.804;8.764;2022-08-19T10:25:37;2.83;;;2.63;;
25952;SDS011;13750;50.804;8.764;2022-08-19T10:28:03;2.67;;;2.30;;
25952;SDS011;13750;50.804;8.764;2022-08-19T10:30:30;3.75;;;2.78;;
25952;SDS011;13750;50.804;8.764;2022-08-19T10:32:56;3.15;;;2.47;;
25952;SDS011;13750;50.804;8.764;2022-08-19T10:35:22;2.50;;;2.03;;
25952;SDS011;13750;50.804;8.764;2022-08-19T10:37:47;2.27;;;2.07;;
25952;SDS011;13750;50.804;8.764;2022-08-19T10:40:13;2.17;;;1.98;;
25952;SDS011;13750;50.804;8.764;2022-08-19T10:42:39;2.27;;;1.93;;
25952;SDS011;13750;50.804;8.764;2022-08-19T10:45:05;2.93;;;2.03;;
25952;SDS011;13750;50.804;8.764;2022-08-19T10:47:31;1.90;;;1.80;;
25952;SDS011;13750;50.804;8.764;2022-08-19T10:49:58;2.88;;;2.67;;
25952;SDS011;13750;50.804;8.764;2022-08-19T10:52:43;3.53;;;3.22;;
25952;SDS011;13750;50.804;8.764;2022-08-19T10:55:10;3.22;;;3.00;;
25952;SDS011;13750;50.804;8.764;2022-08-19T10:57:55;2.85;;;2.38;;
25952;SDS011;13750;50.804;8.764;2022-08-19T11:00:21;3.60;;;3.30;;
25952;SDS011;13750;50.804;8.764;2022-08-19T11:02:48;2.30;;;2.10;;
25952;SDS011;13750;50.804;8.764;2022-08-19T11:05:14;2.42;;;2.22;;
25952;SDS011;13750;50.804;8.764;2022-08-19T11:07:40;3.97;;;2.53;;
25952;SDS011;13750;50.804;8.764;2022-08-19T11:10:07;3.60;;;3.30;;
25952;SDS011;13750;50.804;8.764;2022-08-19T11:12:36;3.50;;;3.20;;
25952;SDS011;13750;50.804;8.764;2022-08-19T11:15:04;3.42;;;3.13;;
25952;SDS011;13750;50.804;8.764;2022-08-19T11:17:36;3.20;;;2.90;;
25952;SDS011;13750;50.804;8.764;2022-08-19T11:20:06;4.05;;;2.75;;
25952;SDS011;13750;50.804;8.764;2022-08-19T11:22:33;3.63;;;3.33;;
25952;SDS011;13750;50.804;8.764;2022-08-19T11:24:59;2.65;;;2.45;;
25952;SDS011;13750;50.804;8.764;2022-08-19T11:27:25;3.23;;;3.03;;
25952;SDS011;13750;50.804;8.764;2022-08-19T11:29:50;3.27;;;3.00;;
25952;SDS011;13750;50.804;8.764;2022-08-19T11:32:17;4.10;;;3.25;;
25952;SDS011;13750;50.804;8.764;2022-08-19T11:34:43;3.33;;;3.07;;
25952;SDS011;13750;50.804;8.764;2022-08-19T11:37:08;3.13;;;2.83;;
25952;SDS011;13750;50.804;8.764;2022-08-19T11:39:34;4.00;;;3.60;;
25952;SDS011;13750;50.804;8.764;2022-08-19T11:42:02;3.53;;;3.22;;
25952;SDS011;13750;50.804;8.764;2022-08-19T11:44:48;3.63;;;3.33;;
25952;SDS011;13750;50.804;8.764;2022-08-19T11:47:14;3.47;;;3.10;;
25952;SDS011;13750;50.804;8.764;2022-08-19T11:49:42;4.10;;;3.33;;
25952;SDS011;13750;50.804;8.764;2022-08-19T11:52:08;3.90;;;3.60;;
25952;SDS011;13750;50.804;8.764;2022-08-19T11:54:34;3.78;;;3.47;;
25952;SDS011;13750;50.804;8.764;2022-08-19T11:57:01;3.75;;;3.45;;
25952;SDS011;13750;50.804;8.764;2022-08-19T11:59:28;4.57;;;3.70;;
25952;SDS011;13750;50.804;8.764;2022-08-19T12:01:54;3.53;;;3.17;;
25952;SDS011;13750;50.804;8.764;2022-08-19T12:04:20;3.50;;;3.22;;
25952;SDS011;13750;50.804;8.764;2022-08-19T12:06:46;3.53;;;3.22;;
25952;SDS011;13750;50.804;8.764;2022-08-19T12:09:12;3.27;;;3.00;;
25952;SDS011;13750;50.804;8.764;2022-08-19T12:11:39;3.25;;;3.05;;
25952;SDS011;13750;50.804;8.764;2022-08-19T12:14:05;4.90;;;3.50;;
25952;SDS011;13750;50.804;8.764;2022-08-19T12:16:33;3.92;;;3.63;;
25952;SDS011;13750;50.804;8.764;2022-08-19T12:18:59;4.00;;;3.70;;
25952;SDS011;13750;50.804;8.764;2022-08-19T12:21:28;4.03;;;3.72;;
25952;SDS011;13750;50.804;8.764;2022-08-19T12:23:55;3.70;;;3.40;;
25952;SDS011;13750;50.804;8.764;2022-08-19T12:26:23;4.15;;;3.85;;
25952;SDS011;13750;50.804;8.764;2022-08-19T12:28:50;3.95;;;3.65;;
25952;SDS011;13750;50.804;8.764;2022-08-19T12:31:15;3.60;;;3.30;;
25952;SDS011;13750;50.804;8.764;2022-08-19T12:36:12;3.53;;;3.22;;
25952;SDS011;13750;50.804;8.764;2022-08-19T12:38:39;3.90;;;3.33;;
25952;SDS011;13750;50.804;8.764;2022-08-19T12:41:06;3.88;;;3.58;;
25952;SDS011;13750;50.804;8.764;2022-08-19T12:43:33;4.85;;;4.28;;
25952;SDS011;13750;50.804;8.764;2022-08-19T12:46:00;3.58;;;3.28;;
25952;SDS011;13750;50.804;8.764;2022-08-19T12:48:26;3.42;;;3.10;;
25952;SDS011;13750;50.804;8.764;2022-08-19T12:50:52;3.20;;;3.00;;
25952;SDS011;13750;50.804;8.764;2022-08-19T12:53:19;3.72;;;3.13;;
25952;SDS011;13750;50.804;8.764;2022-08-19T12:55:44;3.70;;;3.40;;
25952;SDS011;13750;50.804;8.764;2022-08-19T12:58:10;3.73;;;3.43;;
25952;SDS011;13750;50.804;8.764;2022-08-19T13:00:37;3.88;;;3.58;;
25952;SDS011;13750;50.804;8.764;2022-08-19T13:03:05;3.80;;;3.50;;
25952;SDS011;13750;50.804;8.764;2022-08-19T13:05:31;3.73;;;3.43;;
25952;SDS011;13750;50.804;8.764;2022-08-19T13:08:01;4.03;;;3.72;;
25952;SDS011;13750;50.804;8.764;2022-08-19T13:10:28;3.70;;;3.40;;
25952;SDS011;13750;50.804;8.764;2022-08-19T13:12:56;3.33;;;3.10;;
25952;SDS011;13750;50.804;8.764;2022-08-19T13:15:24;4.25;;;3.95;;
25952;SDS011;13750;50.804;8.764;2022-08-19T13:17:51;4.07;;;3.77;;
25952;SDS011;13750;50.804;8.764;2022-08-19T13:20:20;4.10;;;3.80;;
25952;SDS011;13750;50.804;8.764;2022-08-19T13:22:47;4.53;;;4.13;;
25952;SDS011;13750;50.804;8.764;2022-08-19T13:25:14;4.82;;;4.43;;
25952;SDS011;13750;50.804;8.764;2022-08-19T13:27:42;4.15;;;3.85;;
25952;SDS011;13750;50.804;8.764;2022-08-19T13:30:09;3.67;;;3.38;;
25952;SDS011;13750;50.804;8.764;2022-08-19T13:32:54;3.50;;;3.20;;
25952;SDS011;13750;50.804;8.764;2022-08-19T13:35:39;3.25;;;3.05;;
25952;SDS011;13750;50.804;8.764;2022-08-19T13:38:25;3.35;;;3.08;;
25952;SDS011;13750;50.804;8.764;2022-08-19T13:43:19;4.15;;;3.75;;
25952;SDS011;13750;50.804;8.764;2022-08-19T13:45:47;4.50;;;4.10;;
25952;SDS011;13750;50.804;8.764;2022-08-19T13:48:13;4.30;;;4.00;;
25952;SDS011;13750;50.804;8.764;2022-08-19T13:50:40;4.10;;;3.80;;
25952;SDS011;13750;50.804;8.764;2022-08-19T13:53:08;3.83;;;3.47;;
25952;SDS011;13750;50.804;8.764;2022-08-19T13:55:35;4.05;;;3.75;;
25952;SDS011;13750;50.804;8.764;2022-08-19T13:58:05;3.47;;;3.17;;
25952;SDS011;13750;50.804;8.764;2022-08-19T14:00:32;3.72;;;3.42;;
25952;SDS011;13750;50.804;8.764;2022-08-19T14:03:00;3.90;;;3.60;;
25952;SDS011;13750;50.804;8.764;2022-08-19T14:05:27;4.35;;;4.05;;
25952;SDS011;13750;50.804;8.764;2022-08-19T14:07:55;4.80;;;4.40;;
25952;SDS011;13750;50.804;8.764;2022-08-19T14:10:22;5.30;;;4.80;;
25952;SDS011;13750;50.804;8.764;2022-08-19T14:12:48;5.10;;;4.70;;
25952;SDS011;13750;50.804;8.764;2022-08-19T14:15:17;4.15;;;3.75;;
25952;SDS011;13750;50.804;8.764;2022-08-19T14:17:43;4.67;;;4.33;;
25952;SDS011;13750;50.804;8.764;2022-08-19T14:20:11;4.40;;;4.07;;
25952;SDS011;13750;50.804;8.764;2022-08-19T14:25:05;4.97;;;4.47;;
25952;SDS011;13750;50.804;8.764;2022-08-19T14:27:42;4.47;;;4.07;;
25952;SDS011;13750;50.804;8.764;2022-08-19T14:30:09;4.53;;;4.13;;
25952;SDS011;13750;50.804;8.764;2022-08-19T14:32:37;4.57;;;4.18;;
25952;SDS011;13750;50.804;8.764;2022-08-19T14:35:03;4.50;;;4.20;;
25952;SDS011;13750;50.804;8.764;2022-08-19T14:37:29;3.83;;;3.53;;
25952;SDS011;13750;50.804;8.764;2022-08-19T14:39:55;3.67;;;3.33;;
25952;SDS011;13750;50.804;8.764;2022-08-19T14:42:21;4.07;;;3.70;;
25952;SDS011;13750;50.804;8.764;2022-08-19T14:44:46;3.50;;;3.23;;
25952;SDS011;13750;50.804;8.764;2022-08-19T14:47:12;2.87;;;2.67;;
25952;SDS011;13750;50.804;8.764;2022-08-19T14:49:37;2.67;;;2.47;;
25952;SDS011;13750;50.804;8.764;2022-08-19T14:52:04;3.20;;;3.00;;
25952;SDS011;13750;50.804;8.764;2022-08-19T14:54:30;3.70;;;3.50;;
25952;SDS011;13750;50.804;8.764;2022-08-19T14:56:56;4.33;;;4.03;;
25952;SDS011;13750;50.804;8.764;2022-08-19T14:59:21;5.13;;;4.63;;
25952;SDS011;13750;50.804;8.764;2022-08-19T15:01:47;4.30;;;4.00;;
25952;SDS011;13750;50.804;8.764;2022-08-19T15:04:13;3.60;;;3.40;;
25952;SDS011;13750;50.804;8.764;2022-08-19T15:06:38;3.40;;;3.20;;
25952;SDS011;13750;50.804;8.764;2022-08-19T15:09:04;3.25;;;3.00;;
25952;SDS011;13750;50.804;8.764;2022-08-19T15:11:30;3.05;;;2.85;;
25952;SDS011;13750;50.804;8.764;2022-08-19T15:13:57;3.70;;;3.50;;
25952;SDS011;13750;50.804;8.764;2022-08-19T15:16:24;3.75;;;3.45;;
25952;SDS011;13750;50.804;8.764;2022-08-19T15:18:51;4.25;;;3.95;;
25952;SDS011;13750;50.804;8.764;2022-08-19T15:21:19;4.03;;;3.72;;
25952;SDS011;13750;50.804;8.764;2022-08-19T15:23:45;3.88;;;3.58;;
25952;SDS011;13750;50.804;8.764;2022-08-19T15:26:13;3.85;;;3.55;;
25952;SDS011;13750;50.804;8.764;2022-08-19T15:31:05;3.95;;;3.65;;